Raybon, Georgia
Current Conditions -  °F | °C
As of 8:55 AM on Thursday 23 Oct 2014 (Local Time) from KAYS Reporting Station
Clear Clear  
Wind Chill: 53°   Ceiling: Unl
Heat Index: 53°   Visibility: 10mi
Dew Point: 48°   Wind: 5mph
Humidity: 83%   Direction: 60°ENE
Pressure: 30.11"   Gusts: NA
Location:  31.1753°N, 81.969°W
Report Text: KAYS 231255Z AUTO 06004KT 10SM CLR 12/09 A3011 RMK AO2 T01170089
Loading
Personal Weather Stations






























Interactive Weather Map
Tropical Storm Tracking
New forecast layout! Learn more

10-Day Weather Forecast

Advertisements
Track Severe Weather on mobile